Time;durP1;ratioP1;P1;durP2;ratioP2;P2;SDS_P1;SDS_P2;PMS_P1;PMS_P2;Temp;Humidity;BMP_temperature;BMP_pressure;BME280_temperature;BME280_humidity;BME280_pressure;Samples;Min_cycle;Max_cycle;Signal;HPM_P1;HPM_P2
2022/11/30 00:01:25;;;;;;;10.52;9.73;;;;;;;;;;4994062;28;20544;-69
2022/11/30 00:03:55;;;;;;;12.30;11.10;;;;;;;;;;4990491;28;20401;-69
2022/11/30 00:06:23;;;;;;;10.63;9.93;;;;;;;;;;4993134;28;20033;-69
2022/11/30 00:08:51;;;;;;;10.60;9.70;;;;;;;;;;4993839;28;20113;-69
2022/11/30 00:11:17;;;;;;;10.57;9.88;;;;;;;;;;4995141;28;20356;-73
2022/11/30 00:13:43;;;;;;;12.32;11.35;;;;;;;;;;4994893;28;20041;-70
2022/11/30 00:16:09;;;;;;;11.85;10.85;;;;;;;;;;4992409;28;20034;-70
2022/11/30 00:18:35;;;;;;;12.43;11.18;;;;;;;;;;4992733;28;20037;-70
2022/11/30 00:21:05;;;;;;;10.55;9.70;;;;;;;;;;4991103;28;20088;-69
2022/11/30 00:23:35;;;;;;;11.65;10.70;;;;;;;;;;4993664;28;20609;-72
2022/11/30 00:26:02;;;;;;;10.85;10.02;;;;;;;;;;4991893;28;20041;-72
2022/11/30 00:28:29;;;;;;;10.38;9.68;;;;;;;;;;4995041;28;20096;-71
2022/11/30 00:31:02;;;;;;;12.43;11.43;;;;;;;;;;4994335;28;20445;-72
2022/11/30 00:33:30;;;;;;;10.60;9.80;;;;;;;;;;4995280;28;20098;-71
2022/11/30 00:36:01;;;;;;;10.60;9.90;;;;;;;;;;4993331;28;20034;-71
2022/11/30 00:38:27;;;;;;;;;;;;;;;;;;4994285;28;20027;-71
2022/11/30 00:40:52;;;;;;;9.95;9.25;;;;;;;;;;4991145;28;20421;-71
2022/11/30 00:43:18;;;;;;;9.40;8.75;;;;;;;;;;4993972;28;20219;-70
2022/11/30 00:45:43;;;;;;;10.45;9.68;;;;;;;;;;4995328;28;20069;-70
2022/11/30 00:48:09;;;;;;;10.77;9.98;;;;;;;;;;4996349;28;20080;-71
2022/11/30 00:50:34;;;;;;;11.40;10.02;;;;;;;;;;4993580;28;20042;-71
2022/11/30 00:52:59;;;;;;;10.73;9.93;;;;;;;;;;4991833;28;20439;-71
2022/11/30 00:55:26;;;;;;;9.80;9.10;;;;;;;;;;4994565;28;20034;-71
2022/11/30 00:57:52;;;;;;;9.25;8.63;;;;;;;;;;4997121;28;20027;-71
2022/11/30 01:00:17;;;;;;;11.40;10.50;;;;;;;;;;4993768;28;20038;-71
2022/11/30 01:02:43;;;;;;;9.77;9.07;;;;;;;;;;4993125;28;20123;-71
2022/11/30 01:05:09;;;;;;;11.23;10.35;;;;;;;;;;4992459;28;20487;-71
2022/11/30 01:07:35;;;;;;;12.00;11.10;;;;;;;;;;4992683;28;20040;-71
2022/11/30 01:10:00;;;;;;;10.75;9.95;;;;;;;;;;4993571;28;20229;-72
2022/11/30 01:12:25;;;;;;;10.32;9.57;;;;;;;;;;4994986;28;20388;-72
2022/11/30 01:14:51;;;;;;;10.45;9.45;;;;;;;;;;4994114;28;20503;-72
2022/11/30 01:17:16;;;;;;;10.27;9.57;;;;;;;;;;4995242;28;20061;-73
2022/11/30 01:19:41;;;;;;;10.00;9.20;;;;;;;;;;4995856;28;20121;-73
2022/11/30 01:22:07;;;;;;;10.55;9.65;;;;;;;;;;4994820;28;20026;-72
2022/11/30 01:24:32;;;;;;;10.88;10.07;;;;;;;;;;4994559;28;20520;-73
2022/11/30 01:26:57;;;;;;;9.25;8.65;;;;;;;;;;4993794;28;20653;-73
2022/11/30 01:29:23;;;;;;;9.18;8.57;;;;;;;;;;4994380;28;20041;-72
2022/11/30 01:31:48;;;;;;;9.13;8.48;;;;;;;;;;4991632;28;20053;-72
2022/11/30 01:34:13;;;;;;;10.85;9.95;;;;;;;;;;4992394;28;20033;-73
2022/11/30 01:36:39;;;;;;;10.82;9.93;;;;;;;;;;4993595;28;20030;-72
2022/11/30 01:39:07;;;;;;;11.63;9.98;;;;;;;;;;4994504;28;20112;-72
2022/11/30 01:41:33;;;;;;;10.77;10.05;;;;;;;;;;4991734;28;20312;-73
2022/11/30 01:44:04;;;;;;;11.02;10.02;;;;;;;;;;4995444;28;20033;-71
2022/11/30 01:46:35;;;;;;;8.63;8.02;;;;;;;;;;4991240;28;20030;-71
2022/11/30 01:49:31;;;;;;;9.10;8.50;;;;;;;;;;4994068;28;20584;-71
2022/11/30 01:52:05;;;;;;;10.20;9.50;;;;;;;;;;4995013;28;20103;-72
2022/11/30 01:54:36;;;;;;;9.70;9.00;;;;;;;;;;4991672;28;20442;-71
2022/11/30 01:57:08;;;;;;;11.75;10.85;;;;;;;;;;4989864;28;20069;-70
2022/11/30 01:59:33;;;;;;;10.40;9.70;;;;;;;;;;4992082;28;20112;-72
2022/11/30 02:01:59;;;;;;;10.43;9.35;;;;;;;;;;4992274;28;20105;-71
2022/11/30 02:04:30;;;;;;;10.00;9.20;;;;;;;;;;4992784;28;20045;-70
2022/11/30 02:07:00;;;;;;;10.43;9.63;;;;;;;;;;4992547;28;20099;-72
2022/11/30 02:09:26;;;;;;;10.68;9.88;;;;;;;;;;4991195;28;20026;-71
2022/11/30 02:11:52;;;;;;;9.77;8.88;;;;;;;;;;4988376;28;20121;-71
2022/11/30 02:14:36;;;;;;;11.43;10.63;;;;;;;;;;4990996;28;20205;-71
2022/11/30 02:17:41;;;;;;;9.65;8.95;;;;;;;;;;5000744;28;20096;-70
2022/11/30 02:20:09;;;;;;;10.45;9.75;;;;;;;;;;4996181;28;20431;-71
2022/11/30 02:22:51;;;;;;;9.10;8.40;;;;;;;;;;4993621;28;20045;-71
2022/11/30 02:25:41;;;;;;;10.07;9.15;;;;;;;;;;4993934;28;20049;-72
2022/11/30 02:28:07;;;;;;;9.75;9.02;;;;;;;;;;4994258;28;20037;-76
2022/11/30 02:30:34;;;;;;;10.70;9.73;;;;;;;;;;4995688;28;20034;-77
2022/11/30 02:33:05;;;;;;;10.85;10.05;;;;;;;;;;4992429;28;20026;-77
2022/11/30 02:35:36;;;;;;;10.38;9.60;;;;;;;;;;4993415;28;20113;-77
2022/11/30 02:38:03;;;;;;;10.90;9.82;;;;;;;;;;4993304;28;20038;-76
2022/11/30 02:40:29;;;;;;;10.82;10.02;;;;;;;;;;4992201;28;20605;-75
2022/11/30 02:42:56;;;;;;;10.88;9.98;;;;;;;;;;4996593;28;20041;-75
2022/11/30 02:45:30;;;;;;;24.50;10.98;;;;;;;;;;4996259;28;20129;-74
2022/11/30 02:48:19;;;;;;;8.77;8.18;;;;;;;;;;4994026;28;20037;-75
2022/11/30 02:50:52;;;;;;;11.50;10.60;;;;;;;;;;4993295;28;20049;-75
2022/11/30 02:53:18;;;;;;;12.43;11.18;;;;;;;;;;4993243;28;20044;-74
2022/11/30 02:55:44;;;;;;;9.50;8.88;;;;;;;;;;4992925;28;20347;-76
2022/11/30 02:58:10;;;;;;;11.23;10.43;;;;;;;;;;4993391;28;20038;-76
2022/11/30 03:00:35;;;;;;;10.45;9.75;;;;;;;;;;4999714;28;20065;-75
2022/11/30 03:03:01;;;;;;;10.80;9.90;;;;;;;;;;4994637;28;20057;-75
2022/11/30 03:05:26;;;;;;;10.68;9.93;;;;;;;;;;4996255;28;20341;-75
2022/11/30 03:07:52;;;;;;;11.02;10.23;;;;;;;;;;4993186;28;20034;-75
2022/11/30 03:10:17;;;;;;;9.88;9.18;;;;;;;;;;4995346;28;20471;-75
2022/11/30 03:12:42;;;;;;;10.85;9.88;;;;;;;;;;4991594;28;20058;-75
2022/11/30 03:15:08;;;;;;;11.13;10.32;;;;;;;;;;4995029;28;20065;-73
2022/11/30 03:17:34;;;;;;;9.68;8.98;;;;;;;;;;4992785;28;20030;-73
2022/11/30 03:19:59;;;;;;;11.20;10.30;;;;;;;;;;4993637;28;20109;-73
2022/11/30 03:22:25;;;;;;;11.40;10.60;;;;;;;;;;4991255;28;20034;-71
2022/11/30 03:24:50;;;;;;;11.27;10.35;;;;;;;;;;4998150;28;20042;-74
2022/11/30 03:27:15;;;;;;;9.15;8.55;;;;;;;;;;4995147;28;20096;-74
2022/11/30 03:29:41;;;;;;;9.85;9.15;;;;;;;;;;4993015;28;20034;-74
2022/11/30 03:32:06;;;;;;;10.77;9.82;;;;;;;;;;4993218;28;20359;-71
2022/11/30 03:34:32;;;;;;;10.13;9.43;;;;;;;;;;4998518;28;20034;-73
2022/11/30 03:36:58;;;;;;;10.13;9.43;;;;;;;;;;4988662;28;20615;-71
2022/11/30 03:39:23;;;;;;;9.93;9.23;;;;;;;;;;4993006;28;20408;-71
2022/11/30 03:41:49;;;;;;;10.43;9.57;;;;;;;;;;4992848;28;20030;-71
2022/11/30 03:44:15;;;;;;;11.55;10.50;;;;;;;;;;4991741;28;20578;-71
2022/11/30 03:46:40;;;;;;;11.30;10.35;;;;;;;;;;4993572;28;20030;-71
2022/11/30 03:49:06;;;;;;;11.48;10.48;;;;;;;;;;4994312;28;20022;-72
2022/11/30 03:51:31;;;;;;;10.30;9.60;;;;;;;;;;4992292;28;20101;-71
2022/11/30 03:53:57;;;;;;;11.00;10.07;;;;;;;;;;4997470;28;20034;-71
2022/11/30 03:56:23;;;;;;;10.05;9.13;;;;;;;;;;4994821;28;20609;-71
2022/11/30 03:58:48;;;;;;;9.00;8.40;;;;;;;;;;4995212;28;20068;-70
2022/11/30 04:01:16;;;;;;;10.55;9.75;;;;;;;;;;4993145;28;20022;-71
2022/11/30 04:03:42;;;;;;;12.30;9.55;;;;;;;;;;4996864;28;20033;-70
2022/11/30 04:06:10;;;;;;;9.95;9.20;;;;;;;;;;5002097;28;20036;-70
2022/11/30 04:08:36;;;;;;;11.52;10.63;;;;;;;;;;4998410;28;20022;-71
2022/11/30 04:11:02;;;;;;;11.05;10.15;;;;;;;;;;4998690;28;20038;-69
2022/11/30 04:13:31;;;;;;;10.73;9.93;;;;;;;;;;4996932;28;20109;-70
2022/11/30 04:15:57;;;;;;;10.80;9.98;;;;;;;;;;4995143;28;20118;-72
2022/11/30 04:18:24;;;;;;;9.80;9.07;;;;;;;;;;4997613;28;20077;-70
2022/11/30 04:20:51;;;;;;;11.07;10.18;;;;;;;;;;4996711;28;20022;-70
2022/11/30 04:23:17;;;;;;;11.05;10.25;;;;;;;;;;4998434;28;20033;-70
2022/11/30 04:25:42;;;;;;;10.05;9.15;;;;;;;;;;4996452;28;20026;-70
2022/11/30 04:28:09;;;;;;;11.02;10.02;;;;;;;;;;4997822;28;20041;-72
2022/11/30 04:30:36;;;;;;;9.90;9.20;;;;;;;;;;4998722;28;20026;-72
2022/11/30 04:33:01;;;;;;;10.18;9.48;;;;;;;;;;4995439;28;20045;-72
2022/11/30 04:35:27;;;;;;;10.15;9.40;;;;;;;;;;4996375;28;20034;-72
2022/11/30 04:37:53;;;;;;;11.05;10.02;;;;;;;;;;4996549;28;20041;-71
2022/11/30 04:40:18;;;;;;;9.20;8.50;;;;;;;;;;4997259;28;20034;-70
2022/11/30 04:42:43;;;;;;;10.02;9.32;;;;;;;;;;4995502;28;20034;-70
2022/11/30 04:45:09;;;;;;;11.57;10.68;;;;;;;;;;4996438;28;20052;-72
2022/11/30 04:47:35;;;;;;;11.77;10.95;;;;;;;;;;4996531;28;20049;-73
2022/11/30 04:50:00;;;;;;;9.48;8.85;;;;;;;;;;4995683;28;20424;-74
2022/11/30 04:52:26;;;;;;;10.73;9.77;;;;;;;;;;4997065;28;20526;-75
2022/11/30 04:54:51;;;;;;;10.15;9.32;;;;;;;;;;4995613;28;20462;-75
2022/11/30 04:57:17;;;;;;;12.15;9.90;;;;;;;;;;4995238;28;20369;-74
2022/11/30 04:59:43;;;;;;;10.48;9.68;;;;;;;;;;4996295;28;20551;-74
2022/11/30 05:02:08;;;;;;;10.27;9.57;;;;;;;;;;4996998;28;20062;-74
2022/11/30 05:04:34;;;;;;;9.93;9.23;;;;;;;;;;4994491;28;20022;-73
2022/11/30 05:07:00;;;;;;;10.10;9.30;;;;;;;;;;4994303;28;20041;-73
2022/11/30 05:09:25;;;;;;;10.40;9.65;;;;;;;;;;5000637;28;20026;-74
2022/11/30 05:11:50;;;;;;;13.00;11.90;;;;;;;;;;4995948;28;20053;-74
2022/11/30 05:14:16;;;;;;;9.05;8.45;;;;;;;;;;4993781;28;20026;-74
2022/11/30 05:16:41;;;;;;;11.07;10.18;;;;;;;;;;4995363;28;20045;-71
2022/11/30 05:19:07;;;;;;;11.25;10.35;;;;;;;;;;4994868;28;20066;-73
2022/11/30 05:21:32;;;;;;;10.40;9.60;;;;;;;;;;4993709;28;20034;-72
2022/11/30 05:23:57;;;;;;;13.23;9.75;;;;;;;;;;4996519;28;20049;-72
2022/11/30 05:26:23;;;;;;;9.95;9.25;;;;;;;;;;4992722;28;20448;-72
2022/11/30 05:28:48;;;;;;;13.38;12.20;;;;;;;;;;4994495;28;20113;-72
2022/11/30 05:31:14;;;;;;;9.98;9.27;;;;;;;;;;4992789;28;20026;-72
2022/11/30 05:33:39;;;;;;;10.13;9.20;;;;;;;;;;4993169;28;20473;-70
2022/11/30 05:36:05;;;;;;;9.75;9.07;;;;;;;;;;4993105;28;20095;-71
2022/11/30 05:38:30;;;;;;;9.68;8.98;;;;;;;;;;4996558;28;20038;-72
2022/11/30 05:41:00;;;;;;;10.23;9.43;;;;;;;;;;4992208;28;20069;-69
2022/11/30 05:43:25;;;;;;;12.38;11.18;;;;;;;;;;4994884;28;20037;-70
2022/11/30 05:45:51;;;;;;;11.48;10.52;;;;;;;;;;4993542;28;20038;-70
2022/11/30 05:48:16;;;;;;;9.18;8.48;;;;;;;;;;4994115;28;20050;-70
2022/11/30 05:50:41;;;;;;;10.20;9.40;;;;;;;;;;4994424;28;20100;-72
2022/11/30 05:53:07;;;;;;;10.48;9.60;;;;;;;;;;4994326;28;20034;-74
2022/11/30 05:55:32;;;;;;;9.35;8.73;;;;;;;;;;4991468;28;20149;-71
2022/11/30 05:57:57;;;;;;;11.85;10.73;;;;;;;;;;4990974;28;20061;-73
2022/11/30 06:00:23;;;;;;;9.18;8.48;;;;;;;;;;4993273;28;20169;-73
2022/11/30 06:02:54;;;;;;;9.75;9.05;;;;;;;;;;4994333;28;20101;-72
2022/11/30 06:05:19;;;;;;;10.80;10.00;;;;;;;;;;4991580;28;20030;-76
2022/11/30 06:07:44;;;;;;;11.25;10.18;;;;;;;;;;4994404;28;20080;-73
2022/11/30 06:10:10;;;;;;;10.55;9.75;;;;;;;;;;4996184;28;20112;-73
2022/11/30 06:12:36;;;;;;;9.52;8.85;;;;;;;;;;4993877;28;20499;-73
2022/11/30 06:15:02;;;;;;;10.55;9.77;;;;;;;;;;4992490;28;20026;-73
2022/11/30 06:17:27;;;;;;;9.38;8.77;;;;;;;;;;4994005;28;20062;-72
2022/11/30 06:19:52;;;;;;;12.18;11.18;;;;;;;;;;4990978;28;20026;-73
2022/11/30 06:22:18;;;;;;;11.07;10.18;;;;;;;;;;4990421;28;20165;-72
2022/11/30 06:24:43;;;;;;;10.68;9.77;;;;;;;;;;4995692;28;20045;-73
2022/11/30 06:27:08;;;;;;;10.52;9.73;;;;;;;;;;4995874;28;20109;-72
2022/11/30 06:29:34;;;;;;;9.85;9.00;;;;;;;;;;4993411;28;20165;-71
2022/11/30 06:31:59;;;;;;;11.60;10.48;;;;;;;;;;4990530;28;20081;-71
2022/11/30 06:34:24;;;;;;;10.95;10.05;;;;;;;;;;4993198;28;20065;-70
2022/11/30 06:36:50;;;;;;;9.93;9.23;;;;;;;;;;4991441;28;20092;-72
2022/11/30 06:39:15;;;;;;;9.95;9.05;;;;;;;;;;4993514;28;20347;-71
2022/11/30 06:41:40;;;;;;;11.20;10.40;;;;;;;;;;4989046;28;20946;-71
2022/11/30 06:44:09;;;;;;;11.52;10.48;;;;;;;;;;4991745;28;20113;-69
2022/11/30 06:46:35;;;;;;;10.75;9.85;;;;;;;;;;4990817;28;20077;-70
2022/11/30 06:49:01;;;;;;;11.27;10.43;;;;;;;;;;4992198;28;20184;-70
2022/11/30 06:51:26;;;;;;;11.23;10.43;;;;;;;;;;4994485;28;20535;-77
2022/11/30 06:53:52;;;;;;;9.35;8.65;;;;;;;;;;4994550;28;20046;-70
2022/11/30 06:56:17;;;;;;;10.55;9.80;;;;;;;;;;4993345;28;20030;-70
2022/11/30 06:58:43;;;;;;;11.65;10.75;;;;;;;;;;4990318;28;20096;-73
2022/11/30 07:01:13;;;;;;;10.98;10.18;;;;;;;;;;4990385;28;20774;-72
2022/11/30 07:03:40;;;;;;;11.30;10.35;;;;;;;;;;4993477;28;20341;-70
2022/11/30 07:06:11;;;;;;;11.70;10.63;;;;;;;;;;4996875;28;20538;-68
2022/11/30 07:08:37;;;;;;;11.02;10.02;;;;;;;;;;4992992;28;20046;-68
2022/11/30 07:11:03;;;;;;;12.02;11.02;;;;;;;;;;4994202;28;20026;-68
2022/11/30 07:13:29;;;;;;;10.65;9.85;;;;;;;;;;4993687;28;20432;-68
2022/11/30 07:15:55;;;;;;;11.98;11.02;;;;;;;;;;4995580;28;20061;-69
2022/11/30 07:18:20;;;;;;;11.43;10.57;;;;;;;;;;4997229;28;20416;-69
2022/11/30 07:20:45;;;;;;;12.88;11.82;;;;;;;;;;4991696;28;20041;-69
2022/11/30 07:26:05;;;;;;;11.10;10.30;;;;;;;;;;4992037;28;20558;-69
2022/11/30 07:28:32;;;;;;;11.85;10.82;;;;;;;;;;4990977;28;20030;-70
2022/11/30 07:30:57;;;;;;;9.75;9.13;;;;;;;;;;4992588;28;20061;-74
2022/11/30 07:33:22;;;;;;;11.75;10.48;;;;;;;;;;4993874;28;20146;-69
2022/11/30 07:35:48;;;;;;;10.88;9.88;;;;;;;;;;4997271;28;20045;-69
2022/11/30 07:38:13;;;;;;;10.27;9.57;;;;;;;;;;4997524;28;20065;-69
2022/11/30 07:40:38;;;;;;;9.77;9.07;;;;;;;;;;4996298;28;20053;-72
2022/11/30 07:43:04;;;;;;;9.95;9.20;;;;;;;;;;4995921;28;20041;-67
2022/11/30 07:45:29;;;;;;;11.07;10.05;;;;;;;;;;4994002;28;20073;-61
2022/11/30 07:47:57;;;;;;;11.13;10.07;;;;;;;;;;4997933;28;20069;-61
2022/11/30 07:50:23;;;;;;;11.88;10.68;;;;;;;;;;4996892;28;20622;-62
2022/11/30 07:52:48;;;;;;;10.85;10.00;;;;;;;;;;4996495;28;20061;-62
2022/11/30 07:55:13;;;;;;;11.40;10.60;;;;;;;;;;4994942;28;20037;-62
2022/11/30 07:57:39;;;;;;;11.68;10.73;;;;;;;;;;4994195;28;20038;-62
2022/11/30 08:00:05;;;;;;;12.23;11.15;;;;;;;;;;4995262;28;20581;-63
2022/11/30 08:02:30;;;;;;;11.13;10.20;;;;;;;;;;4993871;28;20121;-63
2022/11/30 08:04:57;;;;;;;12.15;11.05;;;;;;;;;;4994203;28;20123;-63
2022/11/30 08:07:22;;;;;;;12.38;11.23;;;;;;;;;;4995518;28;20069;-62
2022/11/30 08:09:48;;;;;;;11.50;10.45;;;;;;;;;;4994803;28;20105;-61
2022/11/30 08:12:13;;;;;;;10.73;10.00;;;;;;;;;;4993688;28;20067;-61
2022/11/30 08:14:39;;;;;;;9.77;9.07;;;;;;;;;;4994679;28;20038;-63
2022/11/30 08:17:04;;;;;;;11.18;10.20;;;;;;;;;;4993474;28;20042;-62
2022/11/30 08:19:29;;;;;;;11.23;10.30;;;;;;;;;;5001700;28;20030;-62
2022/11/30 08:21:55;;;;;;;12.75;11.63;;;;;;;;;;4989750;28;20037;-62
2022/11/30 08:24:20;;;;;;;12.02;10.93;;;;;;;;;;4996524;28;20045;-62
2022/11/30 08:26:49;;;;;;;11.07;10.18;;;;;;;;;;4994896;28;20576;-62
2022/11/30 08:29:15;;;;;;;10.80;9.80;;;;;;;;;;4996864;28;20025;-61
2022/11/30 08:31:40;;;;;;;9.73;9.13;;;;;;;;;;4993225;28;20196;-61
2022/11/30 08:34:10;;;;;;;11.18;10.32;;;;;;;;;;4994292;28;20293;-61
2022/11/30 08:36:35;;;;;;;10.00;9.20;;;;;;;;;;4991535;28;20336;-62
2022/11/30 08:39:03;;;;;;;10.75;9.85;;;;;;;;;;4993355;28;20481;-62
2022/11/30 08:41:30;;;;;;;10.68;9.77;;;;;;;;;;4992108;28;20260;-62
2022/11/30 08:43:55;;;;;;;11.15;10.02;;;;;;;;;;4993849;28;20520;-62
2022/11/30 08:46:23;;;;;;;10.00;9.25;;;;;;;;;;4992976;28;20045;-62
2022/11/30 08:48:49;;;;;;;10.07;9.27;;;;;;;;;;4991382;28;20325;-62
2022/11/30 08:51:16;;;;;;;11.85;10.77;;;;;;;;;;4993460;28;20121;-62
2022/11/30 08:53:43;;;;;;;10.10;9.30;;;;;;;;;;4994978;28;20041;-61
2022/11/30 08:56:14;;;;;;;9.85;9.15;;;;;;;;;;4994449;28;20075;-63
2022/11/30 08:58:40;;;;;;;11.60;10.50;;;;;;;;;;4995661;28;20038;-63
2022/11/30 09:01:14;;;;;;;11.30;10.18;;;;;;;;;;4995284;28;20030;-62
2022/11/30 09:03:41;;;;;;;11.10;10.18;;;;;;;;;;4995283;28;20109;-63
2022/11/30 09:06:24;;;;;;;9.73;9.02;;;;;;;;;;4994668;28;20135;-62
2022/11/30 09:08:51;;;;;;;9.80;9.10;;;;;;;;;;4992724;28;20066;-62
2022/11/30 09:11:16;;;;;;;12.82;11.38;;;;;;;;;;4993460;28;20520;-61
2022/11/30 09:13:42;;;;;;;9.90;9.20;;;;;;;;;;4994308;28;20037;-62
2022/11/30 09:16:08;;;;;;;9.98;9.27;;;;;;;;;;4994497;28;20076;-63
2022/11/30 09:18:34;;;;;;;10.95;9.95;;;;;;;;;;4992101;28;20141;-62
2022/11/30 09:21:05;;;;;;;11.23;10.43;;;;;;;;;;4991522;28;20446;-62
2022/11/30 09:23:31;;;;;;;11.13;9.90;;;;;;;;;;4994820;28;20038;-62
2022/11/30 09:25:58;;;;;;;13.98;10.75;;;;;;;;;;4991518;28;20034;-62
2022/11/30 09:28:24;;;;;;;12.20;11.30;;;;;;;;;;4993416;28;20369;-62
2022/11/30 09:30:50;;;;;;;9.35;8.65;;;;;;;;;;4995184;28;20050;-64
2022/11/30 09:33:15;;;;;;;11.52;10.55;;;;;;;;;;4996775;28;20792;-63
2022/11/30 09:35:41;;;;;;;9.20;8.60;;;;;;;;;;4996522;28;20423;-62
2022/11/30 09:38:06;;;;;;;10.77;9.95;;;;;;;;;;4994415;28;20038;-62
2022/11/30 09:40:35;;;;;;;9.90;9.20;;;;;;;;;;4993928;28;20061;-62
2022/11/30 09:43:19;;;;;;;8.77;8.07;;;;;;;;;;4994753;28;21222;-61
2022/11/30 09:45:53;;;;;;;10.70;9.77;;;;;;;;;;4995408;28;20030;-61
2022/11/30 09:48:32;;;;;;;9.70;8.90;;;;;;;;;;4997125;28;20028;-60
2022/11/30 09:51:07;;;;;;;10.93;9.98;;;;;;;;;;4995411;28;20046;-61
2022/11/30 09:53:43;;;;;;;10.95;9.93;;;;;;;;;;4992016;28;20455;-61
2022/11/30 09:56:37;;;;;;;12.00;9.52;;;;;;;;;;4993909;28;20576;-61
2022/11/30 09:59:23;;;;;;;12.30;11.30;;;;;;;;;;4993547;28;20038;-61
2022/11/30 10:01:49;;;;;;;21.90;11.35;;;;;;;;;;4991169;28;20042;-61
2022/11/30 10:04:21;;;;;;;10.20;9.50;;;;;;;;;;4992963;28;20034;-61
2022/11/30 10:07:05;;;;;;;11.77;10.80;;;;;;;;;;4992737;28;20052;-61
2022/11/30 10:09:37;;;;;;;11.50;10.60;;;;;;;;;;4993647;28;20037;-61
2022/11/30 10:12:23;;;;;;;11.32;10.25;;;;;;;;;;4991118;28;20037;-61
2022/11/30 10:15:03;;;;;;;17.63;10.70;;;;;;;;;;4989840;28;20069;-61
2022/11/30 10:17:53;;;;;;;11.00;10.13;;;;;;;;;;4992307;28;20474;-61
2022/11/30 10:20:47;;;;;;;11.65;10.55;;;;;;;;;;4994875;28;20185;-61
2022/11/30 10:23:44;;;;;;;11.20;10.32;;;;;;;;;;4992996;28;20038;-61
2022/11/30 10:26:25;;;;;;;11.95;10.85;;;;;;;;;;4993028;28;20122;-61
2022/11/30 10:28:53;;;;;;;12.77;10.80;;;;;;;;;;4993425;28;20549;-60
2022/11/30 10:31:27;;;;;;;10.07;9.32;;;;;;;;;;4989262;28;20030;-61
2022/11/30 10:33:55;;;;;;;9.65;8.98;;;;;;;;;;4990473;28;20108;-60
2022/11/30 10:36:36;;;;;;;10.77;9.98;;;;;;;;;;4993547;28;20714;-60
2022/11/30 10:39:09;;;;;;;9.88;9.15;;;;;;;;;;4995721;28;20174;-60
2022/11/30 10:42:01;;;;;;;10.15;9.45;;;;;;;;;;4990478;28;20030;-60
2022/11/30 10:44:31;;;;;;;10.10;9.40;;;;;;;;;;4993978;28;20550;-61
2022/11/30 10:47:01;;;;;;;11.10;10.20;;;;;;;;;;4992272;28;20044;-60
2022/11/30 10:49:28;;;;;;;10.47;9.47;;;;;;;;;;4991110;28;20046;-60
2022/11/30 10:52:00;;;;;;;10.02;9.43;;;;;;;;;;4991911;28;20037;-60
2022/11/30 10:54:25;;;;;;;9.55;8.85;;;;;;;;;;4992633;28;20068;-60
2022/11/30 10:56:51;;;;;;;11.73;10.85;;;;;;;;;;4993837;28;20551;-60
2022/11/30 10:59:28;;;;;;;9.55;8.85;;;;;;;;;;4991394;28;20026;-60
2022/11/30 11:01:53;;;;;;;10.88;9.85;;;;;;;;;;4994587;28;20030;-60
2022/11/30 11:04:21;;;;;;;9.82;9.13;;;;;;;;;;4993478;28;20474;-60
2022/11/30 11:06:52;;;;;;;10.65;9.77;;;;;;;;;;4993662;28;20049;-60
2022/11/30 11:09:37;;;;;;;8.85;8.25;;;;;;;;;;4995289;28;20030;-60
2022/11/30 11:12:14;;;;;;;10.25;9.45;;;;;;;;;;4992330;28;20034;-60
2022/11/30 11:14:40;;;;;;;9.43;8.73;;;;;;;;;;4996224;28;20069;-60
2022/11/30 11:17:21;;;;;;;10.63;9.80;;;;;;;;;;4993270;28;20057;-60
2022/11/30 11:19:49;;;;;;;9.43;8.73;;;;;;;;;;4995834;28;20113;-60
2022/11/30 11:22:22;;;;;;;8.63;8.02;;;;;;;;;;4993992;28;20046;-60
2022/11/30 11:24:50;;;;;;;10.45;9.52;;;;;;;;;;4995045;28;20026;-59
2022/11/30 11:27:28;;;;;;;10.55;9.77;;;;;;;;;;4994674;28;20030;-60
2022/11/30 11:30:07;;;;;;;10.00;9.30;;;;;;;;;;4995433;28;20532;-60
2022/11/30 11:32:33;;;;;;;12.00;10.90;;;;;;;;;;5001115;28;20026;-60
2022/11/30 11:34:58;;;;;;;9.13;8.43;;;;;;;;;;4991723;28;20464;-59
2022/11/30 11:37:29;;;;;;;9.13;8.43;;;;;;;;;;4996694;28;20047;-59
2022/11/30 11:40:07;;;;;;;;;;;;;;;;;;4995886;28;20045;-60
2022/11/30 11:42:41;;;;;;;9.93;9.23;;;;;;;;;;4995607;28;19929;-59
2022/11/30 11:45:22;;;;;;;10.38;9.65;;;;;;;;;;4991986;28;20037;-60
2022/11/30 11:47:58;;;;;;;9.55;8.88;;;;;;;;;;4991758;28;20046;-60
2022/11/30 11:50:35;;;;;;;10.95;9.98;;;;;;;;;;4995140;28;20043;-60
2022/11/30 11:53:33;;;;;;;10.50;9.60;;;;;;;;;;4988240;28;20034;-59
2022/11/30 11:56:09;;;;;;;10.57;9.77;;;;;;;;;;4992825;28;20038;-59
2022/11/30 11:58:40;;;;;;;10.68;9.63;;;;;;;;;;4995070;28;20117;-60
2022/11/30 12:01:12;;;;;;;9.43;8.73;;;;;;;;;;4993198;28;20156;-60
2022/11/30 12:03:44;;;;;;;11.05;9.80;;;;;;;;;;4990961;28;20129;-59
2022/11/30 12:06:14;;;;;;;10.00;9.20;;;;;;;;;;4992313;28;20093;-60
2022/11/30 12:08:48;;;;;;;10.57;9.80;;;;;;;;;;4992457;28;20026;-60
2022/11/30 12:11:21;;;;;;;10.35;9.57;;;;;;;;;;4993290;28;20041;-59
2022/11/30 12:13:46;;;;;;;11.25;10.35;;;;;;;;;;4993971;28;20365;-59
2022/11/30 12:16:14;;;;;;;11.25;10.35;;;;;;;;;;4996555;28;20041;-59
2022/11/30 12:18:44;;;;;;;11.45;10.57;;;;;;;;;;4993036;28;20544;-59
2022/11/30 12:21:14;;;;;;;11.13;10.23;;;;;;;;;;4995846;28;20026;-59
2022/11/30 12:23:51;;;;;;;11.30;10.48;;;;;;;;;;4994245;28;20073;-59
2022/11/30 12:26:19;;;;;;;10.57;9.57;;;;;;;;;;4996320;28;20161;-60
2022/11/30 12:28:50;;;;;;;11.07;10.18;;;;;;;;;;4995887;28;20034;-59
2022/11/30 12:31:17;;;;;;;;;;;;;;;;;;4996392;28;20701;-60
2022/11/30 12:34:01;;;;;;;10.93;10.02;;;;;;;;;;4997210;28;20476;-59
2022/11/30 12:36:29;;;;;;;11.43;10.52;;;;;;;;;;4996862;28;20034;-59
2022/11/30 12:39:06;;;;;;;11.35;10.35;;;;;;;;;;4997158;28;20027;-59
2022/11/30 12:41:43;;;;;;;11.02;10.02;;;;;;;;;;5000200;28;20694;-60
2022/11/30 12:44:30;;;;;;;10.20;9.50;;;;;;;;;;4997533;28;20029;-60
2022/11/30 12:47:17;;;;;;;13.90;10.70;;;;;;;;;;4997350;28;20123;-60
2022/11/30 12:50:07;;;;;;;9.85;9.15;;;;;;;;;;4997540;28;20400;-59
2022/11/30 12:52:32;;;;;;;12.63;10.18;;;;;;;;;;4996017;28;20030;-60
2022/11/30 12:55:19;;;;;;;9.30;8.60;;;;;;;;;;4996984;28;20057;-60
2022/11/30 12:58:17;;;;;;;10.20;9.45;;;;;;;;;;4995222;28;20037;-60
2022/11/30 13:01:05;;;;;;;9.65;8.95;;;;;;;;;;4997661;28;20034;-60
2022/11/30 13:04:12;;;;;;;10.40;9.63;;;;;;;;;;4994454;28;20509;-60
2022/11/30 13:07:10;;;;;;;10.50;9.45;;;;;;;;;;4980283;28;20429;-60
2022/11/30 13:09:50;;;;;;;9.93;9.20;;;;;;;;;;4995233;28;20033;-60
2022/11/30 13:12:24;;;;;;;10.50;9.60;;;;;;;;;;4992858;28;20109;-60
2022/11/30 13:14:57;;;;;;;11.45;10.40;;;;;;;;;;4995572;28;20109;-60
2022/11/30 13:17:23;;;;;;;10.80;9.90;;;;;;;;;;4996896;28;20030;-59
2022/11/30 13:20:06;;;;;;;11.70;10.68;;;;;;;;;;4997106;28;20038;-60
2022/11/30 13:22:45;;;;;;;10.40;9.57;;;;;;;;;;4995717;28;20065;-60
2022/11/30 13:25:32;;;;;;;10.82;9.68;;;;;;;;;;4997244;28;20058;-60
2022/11/30 13:28:19;;;;;;;9.40;8.60;;;;;;;;;;4995520;28;20614;-61
2022/11/30 13:30:54;;;;;;;11.40;10.60;;;;;;;;;;4994316;28;20450;-59
2022/11/30 13:33:44;;;;;;;12.02;10.93;;;;;;;;;;4993615;28;20092;-61
2022/11/30 13:36:43;;;;;;;11.88;10.77;;;;;;;;;;4994062;28;20026;-60
2022/11/30 13:39:26;;;;;;;8.75;8.15;;;;;;;;;;4993699;28;20038;-60
2022/11/30 13:42:00;;;;;;;11.57;10.60;;;;;;;;;;4994432;28;20030;-60
2022/11/30 13:44:34;;;;;;;9.75;9.05;;;;;;;;;;4992621;28;20734;-60
2022/11/30 13:47:03;;;;;;;9.95;9.25;;;;;;;;;;4995100;28;20026;-60
2022/11/30 13:49:35;;;;;;;9.10;8.40;;;;;;;;;;4995073;28;20026;-60
2022/11/30 13:52:02;;;;;;;11.95;9.75;;;;;;;;;;4992022;28;20034;-59
2022/11/30 13:54:56;;;;;;;11.07;9.98;;;;;;;;;;4992490;28;20142;-61
2022/11/30 13:57:24;;;;;;;11.82;10.82;;;;;;;;;;4992530;28;20037;-60
2022/11/30 13:59:50;;;;;;;9.18;8.38;;;;;;;;;;4990549;28;20430;-59
2022/11/30 14:02:31;;;;;;;11.18;10.07;;;;;;;;;;4992850;28;20038;-60
2022/11/30 14:05:18;;;;;;;9.98;9.27;;;;;;;;;;4996156;28;20087;-59
2022/11/30 14:08:06;;;;;;;10.57;9.77;;;;;;;;;;4993115;28;20030;-60
2022/11/30 14:10:33;;;;;;;11.00;10.00;;;;;;;;;;4991157;28;20038;-61
2022/11/30 14:13:08;;;;;;;9.52;8.75;;;;;;;;;;4994376;28;20040;-61
2022/11/30 14:15:40;;;;;;;11.05;10.25;;;;;;;;;;4994550;28;20356;-60
2022/11/30 14:18:08;;;;;;;10.27;9.20;;;;;;;;;;4994234;28;20355;-60
2022/11/30 14:20:43;;;;;;;9.80;8.85;;;;;;;;;;4993442;28;20080;-59
2022/11/30 14:23:16;;;;;;;9.85;9.10;;;;;;;;;;4992777;28;20042;-59
2022/11/30 14:25:47;;;;;;;13.65;9.98;;;;;;;;;;4992192;28;20034;-59
2022/11/30 14:31:55;;;;;;;10.60;9.70;;;;;;;;;;4991654;28;20041;-62
2022/11/30 14:34:26;;;;;;;11.13;9.90;;;;;;;;;;4995049;28;20081;-61
2022/11/30 14:36:55;;;;;;;11.50;10.60;;;;;;;;;;4995925;28;20056;-63
2022/11/30 14:39:26;;;;;;;9.70;8.95;;;;;;;;;;4992991;28;20026;-63
2022/11/30 14:41:52;;;;;;;;;;;;;;;;;;4994833;28;20610;-64
2022/11/30 14:44:17;;;;;;;9.35;8.68;;;;;;;;;;4993065;28;20164;-62
2022/11/30 14:46:42;;;;;;;9.32;8.57;;;;;;;;;;4991750;28;20036;-63
2022/11/30 14:49:14;;;;;;;8.73;8.05;;;;;;;;;;4993669;28;20455;-63
2022/11/30 14:51:42;;;;;;;9.52;8.82;;;;;;;;;;4993700;28;20499;-62
2022/11/30 14:54:25;;;;;;;10.43;9.63;;;;;;;;;;4992652;28;20052;-63